首页
METAR-TAF:

METAR-TAF

机场 :

米德蘭, 得克萨斯州, 美国

纬度: 31-56-52N, 经度: 102-12-31W, 海拔: 875米

当前天气观测

该预报发布于16分钟前的09:53 UTC
风速20节,风向南转南东,有时为30节阵风
温度 24°C
湿度 69%
气压 1012 hPa
能見度: 16.1公里
天空无云

METAR: KMAF 190953Z 16020G30KT 10SM CLR 24/18 A2989 RMK AO2 PK WND 15030/0944 SLP069 T02390178 $

时间: 05:09 (10:09 UTC)

预报

该预报发布于4小时和49分钟前的05:20 UTC
预报有效从19日的 06点(UTC)到 20日的 06点(UTC)
风速18节,风向南转南东,有时为26节阵风
能見度: 10公里
少量云层高于6000英尺
从 19日的 1100点(UTC)
风速15节,风向东南
能見度: 10公里
散云层高于3500英尺
多云层高于7000英尺
短暂存在
从 19日的 12点(UTC)到 19日的 15点(UTC)
多云层高于2500英尺
从 19日的 1700点(UTC)
风速19节,风向东转东南,有时为28节阵风
能見度: 10公里
散云层高于10000英尺
多云层高于20000英尺

TAF: KMAF 190520Z 1906/2006 16018G26KT P6SM FEW060 FM191100 14015KT P6SM SCT035 BKN070 TEMPO 1912/1915 BKN025 FM191700 12019G28KT P6SM SCT100 BKN200

超过4000个机场的气象观测和天气预报(METAR&TAF报告)。

可查询的气象台以黄色和红色小点在地图上表示。

将鼠标移到小点上方,可查看气象台名称。

然后点击查看天气观测和预报。

如需切换地图:点击带黑十字的绿色按钮放大地图;点击带横线的绿色按钮缩小地图;或者点击绿色箭头查看邻近地区的地图。


METAR-TAF: